Time;durP1;ratioP1;P1;durP2;ratioP2;P2;SDS_P1;SDS_P2;PMS_P1;PMS_P2;Temp;Humidity;BMP_temperature;BMP_pressure;BME280_temperature;BME280_humidity;BME280_pressure;Samples;Min_cycle;Max_cycle;Signal;HPM_P1;HPM_P2
2021/12/29 00:01:14;;;;;;;;;0.00;0.00;;;;;10.89;64.51;100320.69;5044579;28;45866;-83
2021/12/29 00:03:39;;;;;;;;;0.00;0.00;;;;;11.42;64.56;100419.69;5043697;28;45490;-84
2021/12/29 00:06:04;;;;;;;;;0.00;0.00;;;;;11.19;64.57;100364.97;5042962;28;45433;-84
2021/12/29 00:08:30;;;;;;;;;0.00;0.00;;;;;11.22;64.73;100368.47;5043014;28;45415;-84
2021/12/29 00:10:57;;;;;;;;;0.00;0.00;;;;;11.36;64.98;100397.13;5043553;28;45463;-85
2021/12/29 00:13:25;;;;;;;;;1.00;0.00;;;;;11.63;64.85;100463.16;5044065;28;45348;-85
2021/12/29 00:15:57;;;;;;;;;0.00;0.00;;;;;11.08;64.82;100364.97;5042822;28;45424;-85
2021/12/29 00:18:23;;;;;;;;;0.00;0.00;;;;;11.42;65.14;100429.28;5043006;28;45349;-85
2021/12/29 00:20:48;;;;;;;;;0.75;0.75;;;;;10.96;64.50;100355.44;5043187;28;45407;-85
2021/12/29 00:23:14;;;;;;;;;0.00;0.00;;;;;11.10;64.66;100374.53;5043424;28;45466;-85
2021/12/29 00:25:39;;;;;;;;;0.00;0.00;;;;;11.03;64.58;100388.44;5043070;28;45347;-85
2021/12/29 00:28:04;;;;;;;;;3.00;2.00;;;;;11.18;64.75;100410.16;5042913;28;45394;-85
2021/12/29 00:30:30;;;;;;;;;0.25;0.25;;;;;11.33;64.69;100451.84;5043091;28;45349;-84
2021/12/29 00:32:57;;;;;;;;;0.00;0.00;;;;;11.35;64.74;100457.94;5043453;28;45690;-85
2021/12/29 00:35:22;;;;;;;;;0.25;0.00;;;;;11.10;64.55;100416.22;5042459;28;45452;-85
2021/12/29 00:37:50;;;;;;;;;0.75;0.75;;;;;10.88;64.87;100384.06;5042658;28;45543;-85
2021/12/29 00:40:15;;;;;;;;;0.00;0.00;;;;;11.64;64.45;100519.63;5043287;28;45452;-84
2021/12/29 00:42:41;;;;;;;;;0.25;0.00;;;;;11.30;64.59;100464.00;5043087;28;45567;-84
2021/12/29 00:45:07;;;;;;;;;0.00;0.00;;;;;11.22;64.55;100461.38;5042238;28;45285;-84
2021/12/29 00:47:35;;;;;;;;;0.00;0.00;;;;;11.28;64.55;100450.97;5042765;28;45371;-85
2021/12/29 00:50:05;;;;;;;;;0.00;0.00;;;;;11.56;64.52;100494.44;5042456;28;45395;-84
2021/12/29 00:52:30;;;;;;;;;0.00;0.00;;;;;11.38;64.49;100463.16;5039894;28;45498;-88
2021/12/29 00:54:56;;;;;;;;;0.00;0.00;;;;;11.74;64.64;100524.88;5032280;28;47005;-85
2021/12/29 00:57:24;;;;;;;;;0.25;0.25;;;;;11.34;64.65;100466.63;5042000;28;45383;-85
2021/12/29 00:59:49;;;;;;;;;0.00;0.00;;;;;11.01;64.82;100409.28;5039098;28;45383;-84
2021/12/29 01:02:15;;;;;;;;;1.00;0.00;;;;;11.54;64.68;100499.66;5048116;28;45336;-84
2021/12/29 01:04:41;;;;;;;;;2.25;0.00;;;;;10.85;64.70;100369.31;5033835;28;46528;-86
2021/12/29 01:07:06;;;;;;;;;0.00;0.00;;;;;11.05;64.53;100406.66;5050059;28;45483;-84
2021/12/29 01:09:31;;;;;;;;;0.00;0.00;;;;;11.52;65.19;100493.59;5044502;28;45441;-84
2021/12/29 01:11:59;;;;;;;;;0.50;0.00;;;;;11.33;65.19;100467.47;5045445;28;45505;-84
2021/12/29 01:14:26;;;;;;;;;0.00;0.00;;;;;11.28;65.54;100483.09;5054220;28;45403;-84
2021/12/29 01:16:53;;;;;;;;;0.00;0.00;;;;;11.23;65.54;100463.13;5046874;28;45367;-83
2021/12/29 01:19:23;;;;;;;;;0.50;0.50;;;;;11.06;65.68;100450.06;5035970;28;45553;-83
2021/12/29 01:21:51;;;;;;;;;0.00;0.00;;;;;11.01;65.45;100437.03;5035014;28;45518;-84
2021/12/29 01:24:18;;;;;;;;;2.00;0.00;;;;;11.52;65.77;100530.06;5035509;28;46082;-84
2021/12/29 01:26:44;;;;;;;;;0.00;0.00;;;;;11.23;65.61;100484.84;5038574;28;45414;-83
2021/12/29 01:29:11;;;;;;;;;0.50;0.00;;;;;11.38;66.15;100520.50;5041990;28;45301;-84
2021/12/29 01:31:37;;;;;;;;;0.00;0.00;;;;;10.79;65.95;100420.50;5043474;28;45554;-85
2021/12/29 01:34:05;;;;;;;;;0.00;0.00;;;;;11.02;66.37;100465.69;5039819;28;45411;-84
2021/12/29 01:36:35;;;;;;;;;0.25;0.25;;;;;11.40;66.15;100508.31;5044024;28;45387;-85
2021/12/29 01:39:03;;;;;;;;;0.50;0.50;;;;;11.25;66.43;100503.97;5049977;28;45422;-85
2021/12/29 01:41:29;;;;;;;;;0.00;0.00;;;;;11.27;66.28;100494.41;5049883;28;45561;-85
2021/12/29 01:43:55;;;;;;;;;0.00;0.00;;;;;11.29;66.61;100502.22;5048464;28;46113;-86
2021/12/29 01:46:20;;;;;;;;;0.00;0.00;;;;;11.51;66.57;100536.13;5048051;28;45399;-86
2021/12/29 01:48:46;;;;;;;;;0.00;0.00;;;;;11.55;66.50;100535.28;5048312;28;45423;-86
2021/12/29 01:51:13;;;;;;;;;0.00;0.00;;;;;11.58;66.61;100537.03;5049484;28;45351;-87
2021/12/29 01:53:47;;;;;;;;;0.00;0.00;;;;;11.01;66.35;100443.13;5042011;28;46217;-86
2021/12/29 01:56:13;;;;;;;;;1.00;0.00;;;;;11.39;66.89;100526.56;5029134;28;45365;-87
2021/12/29 01:58:39;;;;;;;;;1.00;0.00;;;;;11.29;66.90;100510.03;5047561;28;45349;-86
2021/12/29 02:01:08;;;;;;;;;0.00;0.00;;;;;11.48;66.80;100547.44;5056915;28;45336;-89
2021/12/29 02:03:34;;;;;;;;;0.00;0.00;;;;;10.90;66.69;100453.50;5030013;28;47382;-85
2021/12/29 02:05:59;;;;;;;;;0.00;0.00;;;;;11.15;66.78;100486.56;5030502;28;45435;-86
2021/12/29 02:08:25;;;;;;;;;0.50;0.00;;;;;11.13;66.92;100467.47;5043030;28;45928;-85
2021/12/29 02:10:52;;;;;;;;;0.00;0.00;;;;;10.82;66.75;100420.50;5039966;28;44831;-86
2021/12/29 02:13:18;;;;;;;;;1.25;0.00;;;;;11.07;66.64;100452.69;5036318;28;46992;-87
2021/12/29 02:15:44;;;;;;;;;1.00;0.00;;;;;11.34;66.74;100499.63;5058588;28;44685;-85
2021/12/29 02:18:15;;;;;;;;;0.00;0.00;;;;;11.58;67.00;100570.91;5062467;27;45452;-84
2021/12/29 02:20:47;;;;;;;;;0.00;0.00;;;;;11.61;67.11;100560.50;5059137;28;45384;-84
2021/12/29 02:23:21;;;;;;;;;0.00;0.00;;;;;11.64;67.00;100556.16;5044676;28;46689;-86
2021/12/29 02:25:53;;;;;;;;;0.00;0.00;;;;;11.17;67.02;100469.19;5046914;28;45561;-86
2021/12/29 02:28:26;;;;;;;;;0.00;0.00;;;;;11.48;67.09;100525.69;5046217;28;45340;-84
2021/12/29 02:30:52;;;;;;;;;0.00;0.00;;;;;11.71;67.08;100558.75;5045495;28;45366;-85
2021/12/29 02:33:20;;;;;;;;;0.25;0.25;;;;;11.73;66.84;100573.53;5035031;28;45094;-84
2021/12/29 02:35:46;;;;;;;;;0.00;0.00;;;;;11.73;67.00;100560.50;5036065;28;45436;-84
2021/12/29 02:38:30;;;;;;;;;2.75;0.00;;;;;11.56;67.26;100539.63;5044864;28;45372;-84
2021/12/29 02:41:02;;;;;;;;;0.75;0.75;;;;;11.68;67.24;100557.03;5028891;28;45448;-84
2021/12/29 02:43:27;;;;;;;;;0.00;0.00;;;;;11.61;67.33;100543.09;5048196;28;45358;-84
2021/12/29 02:46:01;;;;;;;;;0.00;0.00;;;;;11.61;67.36;100529.22;5063047;28;45327;-84
2021/12/29 02:48:37;;;;;;;;;2.25;0.00;;;;;11.26;67.31;100460.53;5047793;28;44855;-85
2021/12/29 02:51:07;;;;;;;;;0.00;0.00;;;;;11.81;67.30;100555.28;5048141;28;45374;-85
2021/12/29 02:53:32;;;;;;;;;0.00;0.00;;;;;11.84;67.08;100544.88;5047721;28;45448;-85
2021/12/29 02:55:57;;;;;;;;;0.00;0.00;;;;;11.66;67.10;100509.22;5048427;28;45346;-85
2021/12/29 02:58:24;;;;;;;;;0.00;0.00;;;;;11.82;66.95;100554.41;5063328;28;45383;-84
2021/12/29 03:00:52;;;;;;;;;0.00;0.00;;;;;11.81;67.18;100550.06;5047820;28;45490;-85
2021/12/29 03:03:22;;;;;;;;;0.00;0.00;;;;;11.31;67.12;100469.22;5048087;28;45663;-85
2021/12/29 03:05:48;;;;;;;;;0.00;0.00;;;;;11.63;67.06;100522.25;5047027;28;45481;-85
2021/12/29 03:08:15;;;;;;;;;0.00;0.00;;;;;11.48;67.11;100504.84;5048174;28;45391;-84
2021/12/29 03:10:42;;;;;;;;;0.00;0.00;;;;;11.45;67.14;100502.25;5048817;28;45398;-85
2021/12/29 03:13:08;;;;;;;;;0.00;0.00;;;;;11.84;67.28;100549.19;5048219;28;45524;-85
2021/12/29 03:15:35;;;;;;;;;0.00;0.00;;;;;11.40;67.07;100476.19;5052882;28;45386;-85
2021/12/29 03:18:01;;;;;;;;;0.00;0.00;;;;;11.71;67.13;100528.34;5067578;28;45513;-85
2021/12/29 03:20:26;;;;;;;;;0.00;0.00;;;;;11.91;67.44;100561.38;5068171;28;45321;-85
2021/12/29 03:22:53;;;;;;;;;0.00;0.00;;;;;11.44;66.90;100469.22;5052076;28;48093;-86
2021/12/29 03:25:18;;;;;;;;;0.00;0.00;;;;;11.89;66.98;100548.34;5078370;28;45560;-85
2021/12/29 03:27:44;;;;;;;;;0.00;0.00;;;;;11.58;67.14;100493.56;5068534;28;45352;-86
2021/12/29 03:30:10;;;;;;;;;0.25;0.25;;;;;11.96;67.01;100548.34;5067829;28;45529;-86
2021/12/29 03:32:43;;;;;;;;;0.00;0.00;;;;;11.95;66.89;100544.88;5067652;28;45491;-85
2021/12/29 03:35:09;;;;;;;;;0.25;0.00;;;;;11.85;67.13;100533.56;5067418;28;45435;-86
2021/12/29 03:37:35;;;;;;;;;0.00;0.00;;;;;11.49;67.17;100478.78;5067265;28;45407;-86
2021/12/29 03:40:01;;;;;;;;;0.00;0.00;;;;;11.36;67.35;100461.41;5067860;28;45462;-86
2021/12/29 03:42:26;;;;;;;;;0.00;0.00;;;;;11.58;67.28;100490.94;5067189;28;45365;-86
2021/12/29 03:44:52;;;;;;;;;0.00;0.00;;;;;11.62;67.42;100499.66;5067115;28;45338;-85
2021/12/29 03:47:17;;;;;;;;;0.00;0.00;;;;;11.53;67.73;100495.31;5067942;28;45371;-85
2021/12/29 03:49:42;;;;;;;;;0.50;0.50;;;;;11.14;67.70;100428.38;5044982;28;45350;-85
2021/12/29 03:52:08;;;;;;;;;0.00;0.00;;;;;11.16;67.41;100431.00;5060527;28;45493;-85
2021/12/29 03:54:33;;;;;;;;;0.00;0.00;;;;;11.88;67.60;100541.38;5066335;28;45394;-82
2021/12/29 03:57:02;;;;;;;;;0.00;0.00;;;;;11.59;67.80;100503.13;5067204;28;45549;-85
2021/12/29 03:59:30;;;;;;;;;0.25;0.00;;;;;11.72;68.02;100513.56;5067289;28;45469;-85
2021/12/29 04:01:56;;;;;;;;;0.00;0.00;;;;;11.40;67.63;100444.91;5067093;28;45477;-85
2021/12/29 04:04:22;;;;;;;;;0.00;0.00;;;;;11.59;67.46;100486.63;5067294;28;45490;-85
2021/12/29 04:06:49;;;;;;;;;0.00;0.00;;;;;11.41;67.84;100441.44;5048659;28;45348;-85
2021/12/29 04:09:15;;;;;;;;;0.00;0.00;;;;;11.68;67.78;100480.53;5067297;28;45213;-85
2021/12/29 04:11:41;;;;;;;;;1.50;0.00;;;;;11.79;67.57;100507.47;5066513;28;45352;-85
2021/12/29 04:14:07;;;;;;;;;0.00;0.00;;;;;11.98;67.43;100523.13;5067165;28;45356;-85
2021/12/29 04:16:37;;;;;;;;;0.00;0.00;;;;;11.98;67.85;100530.97;5066255;28;45481;-85
2021/12/29 04:19:14;;;;;;;;;0.00;0.00;;;;;11.95;67.50;100534.44;5066637;28;45354;-85
2021/12/29 04:21:42;;;;;;;;;0.00;0.00;;;;;10.96;67.63;100376.28;5065010;28;45382;-84
2021/12/29 04:24:07;;;;;;;;;0.50;0.00;;;;;11.07;67.72;100381.47;5062792;28;45795;-85
2021/12/29 04:26:36;;;;;;;;;0.25;0.25;;;;;11.31;67.96;100419.72;5064218;28;45419;-84
2021/12/29 04:29:02;;;;;;;;;0.00;0.00;;;;;11.86;67.90;100509.22;5064476;28;45296;-85
2021/12/29 04:31:28;;;;;;;;;0.75;0.00;;;;;11.06;67.80;100379.75;5070558;28;45474;-85
2021/12/29 04:33:53;;;;;;;;;0.00;0.00;;;;;11.23;67.88;100419.69;5055138;28;45387;-85
2021/12/29 04:36:24;;;;;;;;;0.00;0.00;;;;;11.55;68.12;100462.31;5046651;28;45359;-85
2021/12/29 04:38:54;;;;;;;;;0.00;0.00;;;;;11.95;68.57;100530.97;5049231;28;45523;-85
2021/12/29 04:41:21;;;;;;;;;0.00;0.00;;;;;11.56;68.14;100492.72;5051653;28;45560;-85
2021/12/29 04:44:25;;;;;;;;;0.00;0.00;;;;;11.71;68.75;100530.97;5051353;28;45292;-85
2021/12/29 04:46:51;;;;;;;;;0.00;0.00;;;;;11.57;68.96;100528.31;5045230;28;45169;-85
2021/12/29 04:49:23;;;;;;;;;0.00;0.00;;;;;11.12;69.71;100473.53;5046159;28;45608;-85
2021/12/29 04:51:55;;;;;;;;;1.25;0.00;;;;;10.89;69.86;100435.28;5045306;28;46458;-85
2021/12/29 04:54:23;;;;;;;;;0.00;0.00;;;;;11.44;70.01;100522.22;5059309;28;45422;-85
2021/12/29 04:56:49;;;;;;;;;0.00;0.00;;;;;11.42;70.01;100523.97;5045935;28;45463;-85
2021/12/29 04:59:16;;;;;;;;;0.00;0.00;;;;;11.19;70.39;100490.03;5047065;28;45348;-86
2021/12/29 05:01:42;;;;;;;;;0.50;0.00;;;;;10.55;70.20;100370.97;5046704;28;45375;-86
2021/12/29 05:04:08;;;;;;;;;0.00;0.00;;;;;10.51;70.21;100370.09;5046758;28;45488;-85
2021/12/29 05:09:17;;;;;;;;;0.00;0.00;;;;;11.09;70.36;100457.91;5047279;28;44770;-84
2021/12/29 05:11:43;;;;;;;;;0.00;0.00;;;;;11.25;70.52;100464.88;5045529;28;45464;-84
2021/12/29 05:14:08;;;;;;;;;0.00;0.00;;;;;11.52;71.11;100504.84;5060161;28;45469;-84
2021/12/29 05:16:34;;;;;;;;;0.00;0.00;;;;;11.47;70.84;100490.09;5031732;28;45516;-83
2021/12/29 05:18:59;;;;;;;;;0.00;0.00;;;;;11.58;71.04;100498.78;5023218;28;45559;-84
2021/12/29 05:21:25;;;;;;;;;0.00;0.00;;;;;11.19;70.70;100438.81;5025031;28;45479;-85
2021/12/29 05:23:52;;;;;;;;;1.50;0.00;;;;;11.60;70.63;100494.44;5025752;28;45420;-86
2021/12/29 05:26:17;;;;;;;;;0.00;0.00;;;;;11.59;70.77;100495.31;5026666;28;45325;-86
2021/12/29 05:28:44;;;;;;;;;0.00;0.00;;;;;11.24;70.86;100444.88;5026973;28;45274;-84
2021/12/29 05:31:10;;;;;;;;;0.00;0.00;;;;;11.26;71.18;100437.06;5041030;28;45252;-84
2021/12/29 05:33:36;;;;;;;;;0.00;0.00;;;;;11.66;71.19;100490.97;5039888;28;44758;-85
2021/12/29 05:36:02;;;;;;;;;0.00;0.00;;;;;11.70;71.37;100489.25;5027609;28;45620;-85
2021/12/29 05:38:27;;;;;;;;;0.00;0.00;;;;;11.45;71.44;100447.53;5028031;28;45513;-85
2021/12/29 05:40:53;;;;;;;;;0.00;0.00;;;;;11.55;71.46;100451.88;5033546;28;45459;-84
2021/12/29 05:43:19;;;;;;;;;0.00;0.00;;;;;10.99;71.54;100361.50;5041835;28;44823;-86
2021/12/29 05:45:45;;;;;;;;;0.00;0.00;;;;;11.33;71.83;100411.91;5040206;28;45317;-85
2021/12/29 05:48:10;;;;;;;;;0.00;0.00;;;;;11.28;72.10;100410.13;5029424;28;45412;-86
2021/12/29 05:50:36;;;;;;;;;0.00;0.00;;;;;11.05;72.05;100378.00;5016785;28;45948;-85
2021/12/29 05:53:03;;;;;;;;;0.00;0.00;;;;;10.86;72.22;100339.78;5028318;28;45313;-84
2021/12/29 05:55:28;;;;;;;;;0.00;0.00;;;;;11.59;72.58;100470.97;5027348;28;45360;-85
2021/12/29 05:57:55;;;;;;;;;0.00;0.00;;;;;11.40;72.69;100435.34;5033586;28;45663;-85
2021/12/29 06:00:22;;;;;;;;;0.00;0.00;;;;;11.58;73.15;100472.69;5037787;28;45221;-85
2021/12/29 06:02:48;;;;;;;;;0.00;0.00;;;;;11.17;73.25;100408.38;5038053;28;44888;-85
2021/12/29 06:05:16;;;;;;;;;0.00;0.00;;;;;11.05;73.45;100391.03;5019010;28;45492;-87
2021/12/29 06:07:41;;;;;;;;;1.25;0.00;;;;;11.43;73.60;100457.06;5039867;28;44941;-86
2021/12/29 06:10:08;;;;;;;;;0.00;0.00;;;;;11.13;73.74;100407.53;5039542;28;44969;-86
2021/12/29 06:12:34;;;;;;;;;0.00;0.00;;;;;10.70;73.75;100325.91;5020182;28;44818;-85
2021/12/29 06:14:59;;;;;;;;;0.50;0.00;;;;;10.88;74.18;100373.66;5038699;28;44821;-87
2021/12/29 06:17:24;;;;;;;;;0.00;0.00;;;;;10.84;74.13;100351.94;5059907;28;44862;-86
2021/12/29 06:19:50;;;;;;;;;0.00;0.00;;;;;10.88;74.32;100356.28;5057479;28;45691;-84
2021/12/29 06:22:15;;;;;;;;;0.00;0.00;;;;;11.35;74.21;100452.72;5046255;28;45352;-84
2021/12/29 06:24:42;;;;;;;;;0.00;0.00;;;;;11.07;74.36;100395.38;5044206;28;45337;-84
2021/12/29 06:27:09;;;;;;;;;0.00;0.00;;;;;11.51;74.38;100477.06;5042355;28;45583;-84
2021/12/29 06:29:35;;;;;;;;;0.00;0.00;;;;;11.49;74.31;100470.97;5042262;28;46182;-84
2021/12/29 06:32:02;;;;;;;;;0.00;0.00;;;;;10.97;74.37;100393.63;5041838;28;45449;-84
2021/12/29 06:34:29;;;;;;;;;0.00;0.00;;;;;10.58;74.51;100329.34;5042169;28;45456;-83
2021/12/29 06:36:55;;;;;;;;;0.00;0.00;;;;;10.92;74.57;100398.81;5042635;28;45396;-87
2021/12/29 06:39:21;;;;;;;;;0.00;0.00;;;;;11.44;74.63;100471.84;5043840;28;45625;-85
2021/12/29 06:41:46;;;;;;;;;0.00;0.00;;;;;10.72;75.03;100370.16;5043886;28;45325;-85
2021/12/29 06:44:12;;;;;;;;;0.00;0.00;;;;;10.94;74.75;100406.63;5042208;28;45527;-84
2021/12/29 06:46:37;;;;;;;;;0.00;0.00;;;;;10.43;74.83;100327.53;5048061;28;45401;-84
2021/12/29 06:49:03;;;;;;;;;0.00;0.00;;;;;10.97;74.88;100402.28;5057193;28;48358;-84
2021/12/29 06:51:29;;;;;;;;;0.00;0.00;;;;;10.35;75.19;100311.88;5058171;28;45464;-84
2021/12/29 06:53:54;;;;;;;;;0.00;0.00;;;;;10.41;75.47;100315.38;5061351;28;44794;-84
2021/12/29 06:56:20;;;;;;;;;0.00;0.00;;;;;11.39;75.16;100474.44;5042738;28;44925;-84
2021/12/29 06:58:46;;;;;;;;;0.00;0.00;;;;;11.41;75.29;100467.50;5054582;28;45569;-86
2021/12/29 07:01:12;;;;;;;;;0.00;0.00;;;;;11.07;74.97;100425.75;5055294;28;44770;-83
2021/12/29 07:03:38;;;;;;;;;0.00;0.00;;;;;10.83;75.44;100367.56;5051261;28;45383;-83
2021/12/29 07:06:04;;;;;;;;;0.00;0.00;;;;;11.35;75.16;100457.94;5048409;28;45309;-83
2021/12/29 07:08:29;;;;;;;;;0.00;0.00;;;;;11.34;75.08;100453.59;5044314;28;45376;-83
2021/12/29 07:10:55;;;;;;;;;0.00;0.00;;;;;10.81;74.97;100369.31;5044104;28;45340;-83
2021/12/29 07:13:26;;;;;;;;;0.00;0.00;;;;;11.23;75.11;100460.50;5026534;28;45455;-84
2021/12/29 07:15:52;;;;;;;;;0.00;0.00;;;;;10.44;75.70;100318.84;5042374;28;45470;-86
2021/12/29 07:18:17;;;;;;;;;1.00;0.00;;;;;10.87;75.61;100401.41;5041047;28;45304;-85
2021/12/29 07:20:44;;;;;;;;;1.50;0.00;;;;;11.44;76.24;100482.25;5041267;28;45470;-84
2021/12/29 07:23:10;;;;;;;;;0.00;0.00;;;;;11.25;75.45;100440.56;5041193;28;45378;-85
2021/12/29 07:25:36;;;;;;;;;0.00;0.00;;;;;11.04;75.61;100403.19;5041648;28;45438;-85
2021/12/29 07:28:01;;;;;;;;;0.00;0.00;;;;;11.33;75.34;100448.38;5045794;28;45576;-88
2021/12/29 07:30:27;;;;;;;;;0.00;0.00;;;;;11.19;75.85;100414.50;5034437;28;45670;-89
2021/12/29 07:32:52;;;;;;;;;0.00;0.00;;;;;10.59;75.37;100314.56;5045356;28;45487;-91
2021/12/29 07:35:18;;;;;;;;;0.00;0.00;;;;;11.22;75.78;100440.53;5049759;28;45547;-85
2021/12/29 07:37:43;;;;;;;;;0.00;0.00;;;;;10.83;75.63;100360.63;5030749;28;47876;-87
2021/12/29 07:40:09;;;;;;;;;0.50;0.00;;;;;11.16;75.54;100412.75;5042532;28;45509;-86
2021/12/29 07:42:38;;;;;;;;;0.00;0.00;;;;;10.78;75.39;100354.53;5019256;28;45408;-85
2021/12/29 07:45:07;;;;;;;;;0.50;0.00;;;;;11.31;75.93;100451.00;5042606;28;45846;-83
2021/12/29 07:47:34;;;;;;;;;0.00;0.00;;;;;11.03;75.90;100397.09;5049977;28;46009;-86
2021/12/29 07:50:07;;;;;;;;;0.00;0.00;;;;;10.81;76.02;100362.34;5048066;28;45376;-89
2021/12/29 07:52:32;;;;;;;;;0.00;0.00;;;;;11.55;75.59;100505.75;5041755;28;45572;-86
2021/12/29 07:54:58;;;;;;;;;0.00;0.00;;;;;11.15;75.82;100422.28;5041402;28;45651;-86
2021/12/29 07:57:23;;;;;;;;;0.00;0.00;;;;;10.95;75.90;100379.72;5040813;28;45479;-85
2021/12/29 07:59:49;;;;;;;;;0.00;0.00;;;;;11.08;75.95;100409.25;5019414;28;45527;-84
2021/12/29 08:02:18;;;;;;;;;0.00;0.00;;;;;11.60;76.23;100490.94;5029505;28;45442;-86
2021/12/29 08:04:44;;;;;;;;;0.00;0.00;;;;;11.11;76.06;100415.34;5026372;28;45631;-85
2021/12/29 08:07:10;;;;;;;;;0.00;0.00;;;;;10.83;76.13;100372.75;5025697;28;46091;-85
2021/12/29 08:09:36;;;;;;;;;0.25;0.25;;;;;11.26;76.07;100442.28;5049456;28;45301;-84
2021/12/29 08:12:01;;;;;;;;;0.00;0.00;;;;;11.51;76.24;100482.28;5060536;28;44732;-85
2021/12/29 08:14:27;;;;;;;;;0.00;0.00;;;;;11.33;75.93;100443.19;5027525;28;45483;-86
2021/12/29 08:16:52;;;;;;;;;0.50;0.00;;;;;10.95;76.20;100380.59;5023833;28;45973;-84
2021/12/29 08:19:18;;;;;;;;;0.00;0.00;;;;;11.21;76.45;100425.78;5040778;28;45336;-85
2021/12/29 08:21:43;;;;;;;;;0.00;0.00;;;;;10.99;76.34;100386.66;5041182;28;45524;-85
2021/12/29 08:24:09;;;;;;;;;0.00;0.00;;;;;11.28;76.37;100427.53;5025685;28;45566;-87
2021/12/29 08:26:35;;;;;;;;;0.00;0.00;;;;;11.23;76.46;100421.44;5034020;28;47129;-87
2021/12/29 08:29:01;;;;;;;;;0.00;0.00;;;;;11.18;76.78;100428.38;5024334;28;45499;-82
2021/12/29 08:31:27;;;;;;;;;1.50;0.00;;;;;11.79;76.68;100512.69;5024356;28;45496;-84
2021/12/29 08:33:55;;;;;;;;;0.00;0.00;;;;;11.20;76.64;100431.84;5027224;28;45417;-86
2021/12/29 08:36:21;;;;;;;;;0.00;0.00;;;;;10.97;76.70;100385.81;5026570;28;47038;-88
2021/12/29 08:38:47;;;;;;;;;0.00;0.00;;;;;11.82;76.87;100527.50;5022724;28;45374;-85
2021/12/29 08:44:34;;;;;;;;;0.00;0.00;;;;;11.07;77.12;100390.16;5040078;28;45494;-85
2021/12/29 08:47:58;;;;;;;;;0.00;0.00;;;;;11.40;76.73;100430.13;5025882;28;46476;-86
2021/12/29 09:07:47;;;;;;;;;0.00;0.00;;;;;11.30;77.15;100378.88;4859625;29;45390;-86
2021/12/29 09:10:14;;;;;;;;;1.00;0.00;;;;;12.16;77.33;100525.75;4899556;28;45462;-87
2021/12/29 09:12:40;;;;;;;;;0.00;0.00;;;;;11.27;77.67;100364.13;5028834;28;45414;-85
2021/12/29 09:15:06;;;;;;;;;0.00;0.00;;;;;12.28;77.53;100513.53;5033534;28;46098;-88
2021/12/29 09:17:33;;;;;;;;;0.00;0.00;;;;;11.74;77.29;100405.78;5033862;28;45661;-85
2021/12/29 09:20:00;;;;;;;;;0.00;0.00;;;;;11.46;77.34;100350.22;5044282;28;45891;-84
2021/12/29 09:22:26;;;;;;;;;0.00;0.00;;;;;11.43;77.48;100331.97;5032145;28;47494;-87
2021/12/29 09:24:54;;;;;;;;;0.00;0.00;;;;;11.60;77.59;100371.03;5048999;28;45499;-88
2021/12/29 09:27:20;;;;;;;;;0.00;0.00;;;;;12.48;77.58;100508.28;5038355;28;45326;-85
2021/12/29 09:29:46;;;;;;;;;0.00;0.00;;;;;12.50;77.36;100503.06;5049956;28;45371;-85
2021/12/29 09:32:11;;;;;;;;;1.25;0.00;;;;;11.97;77.55;100404.00;5037608;28;47277;-83
2021/12/29 09:34:37;;;;;;;;;0.00;0.00;;;;;12.66;77.55;100503.88;5035720;28;45454;-84
2021/12/29 09:37:04;;;;;;;;;0.00;0.00;;;;;12.71;77.39;100514.31;5047284;28;45505;-86
2021/12/29 09:39:30;;;;;;;;;0.00;0.00;;;;;12.03;77.57;100393.53;5043933;28;45329;-81
2021/12/29 09:41:59;;;;;;;;;0.00;0.00;;;;;12.57;77.28;100472.56;5027978;28;46396;-89
2021/12/29 09:44:24;;;;;;;;;0.25;0.25;;;;;12.56;77.26;100471.72;5039661;28;45404;-84
2021/12/29 09:46:52;;;;;;;;;0.00;0.00;;;;;12.24;77.55;100416.13;5041731;28;45536;-84
2021/12/29 09:49:18;;;;;;;;;0.00;0.00;;;;;12.28;77.27;100411.75;5034750;28;45551;-84
2021/12/29 09:51:43;;;;;;;;;0.00;0.00;;;;;12.46;77.29;100436.06;5040029;28;45551;-84
2021/12/29 09:54:09;;;;;;;;;0.00;0.00;;;;;12.91;77.54;100495.94;5042325;28;45356;-85
2021/12/29 09:56:35;;;;;;;;;0.75;0.00;;;;;12.96;77.64;100498.53;5043133;28;45463;-84
2021/12/29 09:59:00;;;;;;;;;0.00;0.00;;;;;12.20;77.46;100367.44;5023940;28;45329;-86
2021/12/29 10:01:26;;;;;;;;;0.00;0.00;;;;;13.03;77.58;100497.59;5042409;28;45416;-86
2021/12/29 10:03:51;;;;;;;;;0.00;0.00;;;;;13.04;77.67;100495.00;5039770;28;45419;-86
2021/12/29 10:06:17;;;;;;;;;0.00;0.00;;;;;12.91;77.55;100464.56;5041565;28;45363;-84
2021/12/29 10:08:47;;;;;;;;;0.00;0.00;;;;;12.93;77.69;100466.28;5034013;28;45360;-83
2021/12/29 10:11:19;;;;;;;;;0.25;0.00;;;;;12.69;77.92;100424.63;5028773;28;45455;-85
2021/12/29 10:13:47;;;;;;;;;0.00;0.00;;;;;13.16;77.81;100499.28;5040512;28;45361;-85
2021/12/29 10:16:20;;;;;;;;;0.00;0.00;;;;;12.92;78.02;100451.50;5042643;28;46691;-85
2021/12/29 10:18:53;;;;;;;;;0.00;0.00;;;;;13.03;77.96;100471.47;5040740;28;44837;-82
2021/12/29 10:21:22;;;;;;;;;0.00;0.00;;;;;12.52;78.07;100395.13;5021520;28;47483;-84
2021/12/29 10:23:52;;;;;;;;;0.00;0.00;;;;;13.08;78.13;100484.53;5019182;28;45539;-84
2021/12/29 10:26:24;;;;;;;;;0.00;0.00;;;;;12.88;77.72;100448.91;5040519;28;45371;-85
2021/12/29 10:28:53;;;;;;;;;0.00;0.00;;;;;13.19;77.84;100503.63;5041929;28;45462;-86
2021/12/29 10:31:25;;;;;;;;;0.00;0.00;;;;;12.92;78.15;100466.31;5044327;28;46149;-84
2021/12/29 10:33:57;;;;;;;;;0.00;0.00;;;;;12.38;79.19;100384.75;5044469;28;44831;-83
2021/12/29 10:36:32;;;;;;;;;0.00;0.00;;;;;13.25;78.93;100507.94;5053005;28;45363;-83
2021/12/29 10:39:05;;;;;;;;;2.00;0.00;;;;;13.25;78.91;100507.94;5047264;28;45553;-82
2021/12/29 10:41:42;;;;;;;;;0.00;0.00;;;;;12.77;79.53;100434.16;5033595;28;45388;-84
2021/12/29 10:44:12;;;;;;;;;0.00;0.00;;;;;13.30;79.64;100514.84;5037822;28;45575;-85
2021/12/29 10:46:38;;;;;;;;;0.00;0.00;;;;;13.22;79.85;100500.97;5033591;28;45414;-84
2021/12/29 10:49:06;;;;;;;;;0.00;0.00;;;;;13.37;79.61;100518.31;5034802;28;45503;-82
2021/12/29 10:51:46;;;;;;;;;0.00;0.00;;;;;13.41;79.73;100525.25;5030609;28;45685;-83
2021/12/29 10:54:24;;;;;;;;;0.00;0.00;;;;;13.44;79.68;100524.38;5037342;28;45431;-80
2021/12/29 10:57:00;;;;;;;;;0.00;0.00;;;;;13.47;80.06;100526.13;5041849;28;45397;-85
2021/12/29 10:59:30;;;;;;;;;0.00;0.00;;;;;13.40;80.73;100514.81;5038216;28;45305;-85
2021/12/29 11:01:56;;;;;;;;;0.00;0.00;;;;;13.48;80.28;100522.63;5040206;28;45545;-85
2021/12/29 11:04:23;;;;;;;;;0.00;0.00;;;;;13.02;80.43;100451.47;5037310;28;45489;-86
2021/12/29 11:06:50;;;;;;;;;0.00;0.00;;;;;13.32;80.64;100499.16;5023708;28;45406;-85
2021/12/29 11:09:29;;;;;;;;;0.00;0.00;;;;;12.93;81.41;100440.16;5043865;28;45746;-87
2021/12/29 11:11:55;;;;;;;;;0.00;0.00;;;;;13.59;81.16;100533.88;5033350;28;46019;-83
2021/12/29 11:14:28;;;;;;;;;0.00;0.00;;;;;13.65;80.93;100538.19;5041371;28;45407;-85
2021/12/29 11:17:23;;;;;;;;;0.00;0.00;;;;;13.35;81.47;100482.63;5043800;28;45447;-85
2021/12/29 11:19:50;;;;;;;;;0.50;0.00;;;;;13.09;81.21;100433.97;5042987;28;45539;-86
2021/12/29 11:22:18;;;;;;;;;0.00;0.00;;;;;13.59;81.08;100505.13;5041438;28;46088;-87
2021/12/29 11:24:52;;;;;;;;;0.00;0.00;;;;;13.29;81.34;100450.41;5042675;28;45461;-85
2021/12/29 11:27:18;;;;;;;;;0.00;0.00;;;;;13.70;81.31;100502.44;5032538;28;45505;-87
2021/12/29 11:29:54;;;;;;;;;0.00;0.00;;;;;13.89;81.31;100542.38;5026761;28;45503;-84
2021/12/29 11:32:26;;;;;;;;;0.00;0.00;;;;;13.77;81.20;100513.69;5041219;28;46145;-81
2021/12/29 11:34:59;;;;;;;;;0.00;0.00;;;;;13.63;81.54;100483.28;5044068;28;45578;-86
2021/12/29 11:37:25;;;;;;;;;0.00;0.00;;;;;13.55;81.36;100472.91;5044242;28;45625;-89
2021/12/29 11:39:50;;;;;;;;;0.00;0.00;;;;;13.65;80.99;100485.88;5041231;28;45500;-84
2021/12/29 11:42:17;;;;;;;;;0.00;0.00;;;;;13.51;81.15;100452.03;5056360;28;45336;-85
2021/12/29 11:44:43;;;;;;;;;0.00;0.00;;;;;14.14;80.93;100552.63;5041208;28;44772;-84
2021/12/29 11:47:11;;;;;;;;;0.00;0.00;;;;;13.50;81.02;100439.81;5045734;28;45321;-85
2021/12/29 11:49:37;;;;;;;;;0.00;0.00;;;;;13.87;81.42;100488.34;5042767;28;45426;-85